Terminal Aerodrome Forecast
Issued by NWS Wichita, KS

Home | Current Version | Previous Version | Text Only | Print | Product List | Glossary On
Versions: 1 2 3 4 5 6 7 8 9 10 11 12 13 14 15 16 17 18 19 20 21 22 23
000
FTUS43 KICT 231750 CCA
TAFICT
TAF COR
KICT 231750Z 2318/2418 18022G30KT P6SM VCTS SCT025 OVC040CB
     FM232100 18017G26KT P6SM SCT040 BKN300
     FM240000 18013KT P6SM BKN300=

USA.gov is the U.S. government's official web portal to all federal, state and local government web resources and services.